sensor_id;sensor_type;location;lat;lon;timestamp;pressure;altitude;pressure_sealevel;temperature;humidity
46456;BME280;64052;47.466;9.094;2023-02-22T00:01:22;95627.94;;;8.23;53.36
46456;BME280;64052;47.466;9.094;2023-02-22T00:06:24;95630.38;;;8.15;52.69
46456;BME280;64052;47.466;9.094;2023-02-22T00:11:25;95631.44;;;8.12;52.56
46456;BME280;64052;47.466;9.094;2023-02-22T00:16:27;95635.97;;;7.87;53.57
46456;BME280;64052;47.466;9.094;2023-02-22T00:21:28;95641.22;;;7.76;53.62
46456;BME280;64052;47.466;9.094;2023-02-22T00:26:32;95623.09;;;7.62;53.33
46456;BME280;64052;47.466;9.094;2023-02-22T00:31:36;95623.91;;;7.62;53.53
46456;BME280;64052;47.466;9.094;2023-02-22T00:36:44;95631.09;;;7.71;53.08
46456;BME280;64052;47.466;9.094;2023-02-22T00:41:46;95624.16;;;7.70;52.94
46456;BME280;64052;47.466;9.094;2023-02-22T00:46:47;95621.06;;;7.54;53.18
46456;BME280;64052;47.466;9.094;2023-02-22T00:51:49;95625.00;;;7.48;53.64
46456;BME280;64052;47.466;9.094;2023-02-22T00:56:51;95627.00;;;7.44;53.55
46456;BME280;64052;47.466;9.094;2023-02-22T01:01:52;95624.03;;;7.49;53.24
46456;BME280;64052;47.466;9.094;2023-02-22T01:06:54;95623.56;;;7.55;52.92
46456;BME280;64052;47.466;9.094;2023-02-22T01:12:01;95625.56;;;7.52;52.94
46456;BME280;64052;47.466;9.094;2023-02-22T01:17:02;95626.50;;;7.39;53.19
46456;BME280;64052;47.466;9.094;2023-02-22T01:22:04;95617.00;;;7.50;52.81
46456;BME280;64052;47.466;9.094;2023-02-22T01:27:05;95609.59;;;7.43;52.91
46456;BME280;64052;47.466;9.094;2023-02-22T01:32:07;95608.41;;;7.59;52.55
46456;BME280;64052;47.466;9.094;2023-02-22T01:37:09;95603.63;;;7.53;52.96
46456;BME280;64052;47.466;9.094;2023-02-22T01:42:11;95596.97;;;7.49;52.51
46456;BME280;64052;47.466;9.094;2023-02-22T01:47:12;95600.28;;;7.39;52.84
46456;BME280;64052;47.466;9.094;2023-02-22T01:52:17;95600.53;;;7.36;53.07
46456;BME280;64052;47.466;9.094;2023-02-22T01:57:30;95598.16;;;7.44;52.31
46456;BME280;64052;47.466;9.094;2023-02-22T02:02:34;95593.84;;;7.32;52.73
46456;BME280;64052;47.466;9.094;2023-02-22T02:07:36;95587.47;;;7.00;52.53
46456;BME280;64052;47.466;9.094;2023-02-22T02:12:42;95584.44;;;6.82;52.98
46456;BME280;64052;47.466;9.094;2023-02-22T02:17:45;95583.63;;;6.57;53.21
46456;BME280;64052;47.466;9.094;2023-02-22T02:38:54;95569.81;;;6.55;53.69
46456;BME280;64052;47.466;9.094;2023-02-22T02:44:03;95563.84;;;6.53;53.94
46456;BME280;64052;47.466;9.094;2023-02-22T02:49:10;95561.44;;;6.50;53.83
46456;BME280;64052;47.466;9.094;2023-02-22T02:54:13;95555.78;;;6.56;54.00
46456;BME280;64052;47.466;9.094;2023-02-22T02:59:41;95552.44;;;6.66;54.23
46456;BME280;64052;47.466;9.094;2023-02-22T03:21:00;95540.91;;;6.32;54.08
46456;BME280;64052;47.466;9.094;2023-02-22T03:26:12;95538.06;;;6.36;54.05
46456;BME280;64052;47.466;9.094;2023-02-22T03:31:24;95537.59;;;6.42;54.19
46456;BME280;64052;47.466;9.094;2023-02-22T03:36:33;95535.88;;;6.29;53.91
46456;BME280;64052;47.466;9.094;2023-02-22T03:41:36;95535.41;;;6.24;53.90
46456;BME280;64052;47.466;9.094;2023-02-22T03:46:40;95528.03;;;6.05;53.93
46456;BME280;64052;47.466;9.094;2023-02-22T03:51:44;95533.81;;;5.97;54.28
46456;BME280;64052;47.466;9.094;2023-02-22T03:56:54;95530.56;;;6.07;54.33
46456;BME280;64052;47.466;9.094;2023-02-22T04:01:57;95537.25;;;6.11;54.09
46456;BME280;64052;47.466;9.094;2023-02-22T04:06:59;95532.00;;;6.11;54.12
46456;BME280;64052;47.466;9.094;2023-02-22T04:12:02;95532.66;;;6.01;54.02
46456;BME280;64052;47.466;9.094;2023-02-22T04:17:10;95530.75;;;6.03;53.76
46456;BME280;64052;47.466;9.094;2023-02-22T04:22:12;95527.00;;;6.08;53.66
46456;BME280;64052;47.466;9.094;2023-02-22T04:27:14;95523.84;;;6.02;53.85
46456;BME280;64052;47.466;9.094;2023-02-22T04:32:16;95522.19;;;6.01;53.78
46456;BME280;64052;47.466;9.094;2023-02-22T04:37:18;95527.25;;;6.16;53.82
46456;BME280;64052;47.466;9.094;2023-02-22T04:42:19;95521.16;;;5.91;53.96
46456;BME280;64052;47.466;9.094;2023-02-22T04:47:21;95526.06;;;5.96;54.07
46456;BME280;64052;47.466;9.094;2023-02-22T04:52:22;95518.44;;;6.17;53.43
46456;BME280;64052;47.466;9.094;2023-02-22T04:57:24;95522.88;;;6.16;53.07
46456;BME280;64052;47.466;9.094;2023-02-22T05:02:26;95521.31;;;6.14;53.39
46456;BME280;64052;47.466;9.094;2023-02-22T05:07:28;95520.28;;;6.03;53.54
46456;BME280;64052;47.466;9.094;2023-02-22T05:12:29;95526.84;;;5.85;54.19
46456;BME280;64052;47.466;9.094;2023-02-22T05:17:31;95521.59;;;5.85;54.07
46456;BME280;64052;47.466;9.094;2023-02-22T05:22:33;95525.03;;;5.85;53.95
46456;BME280;64052;47.466;9.094;2023-02-22T05:27:34;95516.59;;;5.82;54.36
46456;BME280;64052;47.466;9.094;2023-02-22T05:32:38;95515.09;;;5.90;53.54
46456;BME280;64052;47.466;9.094;2023-02-22T05:37:40;95518.09;;;5.97;53.89
46456;BME280;64052;47.466;9.094;2023-02-22T05:42:41;95513.59;;;5.99;53.45
46456;BME280;64052;47.466;9.094;2023-02-22T05:47:43;95512.78;;;5.99;53.72
46456;BME280;64052;47.466;9.094;2023-02-22T05:52:46;95519.09;;;5.83;54.08
46456;BME280;64052;47.466;9.094;2023-02-22T05:57:48;95519.41;;;5.79;54.76
46456;BME280;64052;47.466;9.094;2023-02-22T06:07:57;95505.28;;;5.81;55.46
46456;BME280;64052;47.466;9.094;2023-02-22T06:12:59;95516.38;;;5.85;55.43
46456;BME280;64052;47.466;9.094;2023-02-22T06:18:01;95512.47;;;5.90;55.21
46456;BME280;64052;47.466;9.094;2023-02-22T06:23:03;95520.81;;;5.96;55.09
46456;BME280;64052;47.466;9.094;2023-02-22T06:28:05;95520.63;;;5.99;54.94
46456;BME280;64052;47.466;9.094;2023-02-22T06:33:06;95524.72;;;5.90;54.90
46456;BME280;64052;47.466;9.094;2023-02-22T06:38:08;95529.00;;;5.91;54.62
46456;BME280;64052;47.466;9.094;2023-02-22T06:43:09;95539.06;;;5.84;54.98
46456;BME280;64052;47.466;9.094;2023-02-22T06:48:11;95541.88;;;5.94;55.22
46456;BME280;64052;47.466;9.094;2023-02-22T06:53:13;95539.25;;;5.94;55.29
46456;BME280;64052;47.466;9.094;2023-02-22T06:58:14;95540.09;;;5.95;55.67
46456;BME280;64052;47.466;9.094;2023-02-22T07:03:16;95536.75;;;6.06;55.23
46456;BME280;64052;47.466;9.094;2023-02-22T07:08:17;95528.81;;;6.18;55.66
46456;BME280;64052;47.466;9.094;2023-02-22T07:13:19;95533.97;;;6.20;55.33
46456;BME280;64052;47.466;9.094;2023-02-22T07:18:20;95535.09;;;6.16;55.19
46456;BME280;64052;47.466;9.094;2023-02-22T07:23:22;95539.91;;;6.22;55.16
46456;BME280;64052;47.466;9.094;2023-02-22T07:28:23;95537.22;;;6.35;55.50
46456;BME280;64052;47.466;9.094;2023-02-22T07:33:25;95546.34;;;6.54;54.90
46456;BME280;64052;47.466;9.094;2023-02-22T07:38:26;95542.16;;;6.51;54.46
46456;BME280;64052;47.466;9.094;2023-02-22T07:43:28;95537.88;;;6.50;55.06
46456;BME280;64052;47.466;9.094;2023-02-22T07:48:32;95535.03;;;6.53;55.24
46456;BME280;64052;47.466;9.094;2023-02-22T07:53:34;95537.97;;;6.73;55.86
46456;BME280;64052;47.466;9.094;2023-02-22T07:58:36;95525.88;;;6.95;56.73
46456;BME280;64052;47.466;9.094;2023-02-22T08:03:37;95522.56;;;7.04;56.83
46456;BME280;64052;47.466;9.094;2023-02-22T08:08:39;95527.66;;;7.17;56.67
46456;BME280;64052;47.466;9.094;2023-02-22T08:13:40;95519.22;;;7.36;56.91
46456;BME280;64052;47.466;9.094;2023-02-22T08:18:42;95517.78;;;7.66;55.14
46456;BME280;64052;47.466;9.094;2023-02-22T08:23:43;95518.34;;;7.81;55.43
46456;BME280;64052;47.466;9.094;2023-02-22T08:28:45;95507.38;;;7.87;55.25
46456;BME280;64052;47.466;9.094;2023-02-22T08:33:47;95511.50;;;8.01;54.50
46456;BME280;64052;47.466;9.094;2023-02-22T08:38:49;95505.75;;;8.08;54.91
46456;BME280;64052;47.466;9.094;2023-02-22T08:43:51;95515.97;;;8.22;54.87
46456;BME280;64052;47.466;9.094;2023-02-22T08:48:53;95513.63;;;8.40;53.43
46456;BME280;64052;47.466;9.094;2023-02-22T08:53:54;95516.13;;;8.53;53.84
46456;BME280;64052;47.466;9.094;2023-02-22T08:58:56;95516.19;;;8.84;54.44
46456;BME280;64052;47.466;9.094;2023-02-22T09:03:57;95513.84;;;8.81;54.00
46456;BME280;64052;47.466;9.094;2023-02-22T09:08:59;95514.75;;;8.92;53.45
46456;BME280;64052;47.466;9.094;2023-02-22T09:14:00;95507.22;;;9.08;52.95
46456;BME280;64052;47.466;9.094;2023-02-22T09:19:02;95511.22;;;9.34;52.21
46456;BME280;64052;47.466;9.094;2023-02-22T09:24:04;95513.09;;;9.53;49.80
46456;BME280;64052;47.466;9.094;2023-02-22T09:29:07;95513.56;;;9.68;50.02
46456;BME280;64052;47.466;9.094;2023-02-22T09:34:09;95508.63;;;9.94;51.70
46456;BME280;64052;47.466;9.094;2023-02-22T09:39:10;95507.47;;;10.38;50.38
46456;BME280;64052;47.466;9.094;2023-02-22T09:44:24;95501.78;;;10.82;49.06
46456;BME280;64052;47.466;9.094;2023-02-22T09:49:31;95494.34;;;11.15;48.75
46456;BME280;64052;47.466;9.094;2023-02-22T09:59:41;95492.38;;;11.83;45.87
46456;BME280;64052;47.466;9.094;2023-02-22T10:05:10;95484.72;;;12.18;44.48
46456;BME280;64052;47.466;9.094;2023-02-22T10:10:18;95476.56;;;12.47;43.53
46456;BME280;64052;47.466;9.094;2023-02-22T10:15:36;95479.31;;;12.82;43.90
46456;BME280;64052;47.466;9.094;2023-02-22T10:25:58;95467.19;;;13.32;43.90
46456;BME280;64052;47.466;9.094;2023-02-22T10:31:06;95462.75;;;13.68;42.79
46456;BME280;64052;47.466;9.094;2023-02-22T10:36:19;95454.50;;;13.71;41.80
46456;BME280;64052;47.466;9.094;2023-02-22T10:41:28;95453.66;;;13.70;40.94
46456;BME280;64052;47.466;9.094;2023-02-22T10:46:32;95457.25;;;13.96;41.46
46456;BME280;64052;47.466;9.094;2023-02-22T10:51:34;95450.00;;;14.39;40.19
46456;BME280;64052;47.466;9.094;2023-02-22T10:56:48;95446.53;;;15.05;41.59
46456;BME280;64052;47.466;9.094;2023-02-22T11:01:50;95436.41;;;16.28;39.00
46456;BME280;64052;47.466;9.094;2023-02-22T11:12:29;95420.66;;;18.81;35.10
46456;BME280;64052;47.466;9.094;2023-02-22T11:17:33;95413.84;;;18.78;35.26
46456;BME280;64052;47.466;9.094;2023-02-22T11:22:40;95418.41;;;17.82;36.79
46456;BME280;64052;47.466;9.094;2023-02-22T11:27:43;95415.44;;;17.55;37.58
46456;BME280;64052;47.466;9.094;2023-02-22T11:32:52;95400.59;;;18.42;36.16
46456;BME280;64052;47.466;9.094;2023-02-22T11:38:17;95386.25;;;20.32;32.85
46456;BME280;64052;47.466;9.094;2023-02-22T11:43:19;95382.09;;;23.12;28.68
46456;BME280;64052;47.466;9.094;2023-02-22T11:48:21;95379.25;;;24.49;26.46
46456;BME280;64052;47.466;9.094;2023-02-22T11:53:37;95370.06;;;25.29;25.17
46456;BME280;64052;47.466;9.094;2023-02-22T12:03:56;95359.78;;;25.78;24.43
46456;BME280;64052;47.466;9.094;2023-02-22T12:19:47;95362.19;;;25.27;23.68
46456;BME280;64052;47.466;9.094;2023-02-22T12:25:21;95361.03;;;25.23;24.47
46456;BME280;64052;47.466;9.094;2023-02-22T12:30:27;95346.59;;;25.05;24.25
46456;BME280;64052;47.466;9.094;2023-02-22T12:35:33;95351.88;;;23.72;25.80
46456;BME280;64052;47.466;9.094;2023-02-22T12:56:56;95346.41;;;22.60;28.22
46456;BME280;64052;47.466;9.094;2023-02-22T13:02:15;95341.63;;;23.63;26.45
46456;BME280;64052;47.466;9.094;2023-02-22T13:12:24;95334.13;;;24.33;25.92
46456;BME280;64052;47.466;9.094;2023-02-22T13:17:37;95337.38;;;25.13;24.29
46456;BME280;64052;47.466;9.094;2023-02-22T13:23:01;95338.03;;;25.56;23.59
46456;BME280;64052;47.466;9.094;2023-02-22T13:28:15;95331.31;;;26.63;22.14
46456;BME280;64052;47.466;9.094;2023-02-22T13:33:48;95327.66;;;26.69;22.98
46456;BME280;64052;47.466;9.094;2023-02-22T13:39:10;95330.50;;;26.28;22.04
46456;BME280;64052;47.466;9.094;2023-02-22T13:44:44;95339.78;;;23.26;25.28
46456;BME280;64052;47.466;9.094;2023-02-22T13:55:17;95334.53;;;21.06;28.71
46456;BME280;64052;47.466;9.094;2023-02-22T14:00:37;95344.34;;;21.39;28.78
46456;BME280;64052;47.466;9.094;2023-02-22T14:10:55;95337.84;;;19.51;31.98
46456;BME280;64052;47.466;9.094;2023-02-22T14:21:11;95346.72;;;18.88;33.40
46456;BME280;64052;47.466;9.094;2023-02-22T14:26:34;95343.41;;;18.07;34.53
46456;BME280;64052;47.466;9.094;2023-02-22T14:37:25;95333.84;;;17.39;37.19
46456;BME280;64052;47.466;9.094;2023-02-22T14:42:30;95337.66;;;17.67;36.03
46456;BME280;64052;47.466;9.094;2023-02-22T14:47:43;95345.31;;;17.92;36.64
46456;BME280;64052;47.466;9.094;2023-02-22T14:53:00;95343.13;;;18.02;35.37
46456;BME280;64052;47.466;9.094;2023-02-22T14:58:14;95336.75;;;17.60;35.94
46456;BME280;64052;47.466;9.094;2023-02-22T15:08:30;95330.28;;;17.17;36.70
46456;BME280;64052;47.466;9.094;2023-02-22T15:13:32;95333.00;;;16.94;36.83
46456;BME280;64052;47.466;9.094;2023-02-22T15:18:41;95335.78;;;16.85;37.02
46456;BME280;64052;47.466;9.094;2023-02-22T15:23:46;95342.47;;;16.96;37.41
46456;BME280;64052;47.466;9.094;2023-02-22T15:28:58;95337.34;;;16.80;37.44
46456;BME280;64052;47.466;9.094;2023-02-22T15:34:20;95342.97;;;16.47;38.43
46456;BME280;64052;47.466;9.094;2023-02-22T15:39:29;95346.75;;;16.29;39.36
46456;BME280;64052;47.466;9.094;2023-02-22T15:44:39;95347.63;;;16.06;39.91
46456;BME280;64052;47.466;9.094;2023-02-22T15:49:41;95348.75;;;15.80;40.52
46456;BME280;64052;47.466;9.094;2023-02-22T15:54:45;95350.88;;;15.62;41.32
46456;BME280;64052;47.466;9.094;2023-02-22T15:59:50;95352.75;;;15.53;41.34
46456;BME280;64052;47.466;9.094;2023-02-22T16:05:05;95353.63;;;15.45;41.83
46456;BME280;64052;47.466;9.094;2023-02-22T16:10:19;95352.91;;;15.51;42.31
46456;BME280;64052;47.466;9.094;2023-02-22T16:15:21;95358.56;;;15.48;42.19
46456;BME280;64052;47.466;9.094;2023-02-22T16:25:30;95366.59;;;14.92;42.69
46456;BME280;64052;47.466;9.094;2023-02-22T16:30:36;95362.81;;;14.69;43.42
46456;BME280;64052;47.466;9.094;2023-02-22T16:35:38;95368.44;;;14.58;44.23
46456;BME280;64052;47.466;9.094;2023-02-22T16:40:44;95371.78;;;14.27;44.76
46456;BME280;64052;47.466;9.094;2023-02-22T16:45:47;95375.75;;;14.23;45.36
46456;BME280;64052;47.466;9.094;2023-02-22T16:50:50;95384.38;;;14.08;45.60
46456;BME280;64052;47.466;9.094;2023-02-22T16:55:56;95388.31;;;13.87;46.38
46456;BME280;64052;47.466;9.094;2023-02-22T17:00:59;95396.75;;;13.83;46.95
46456;BME280;64052;47.466;9.094;2023-02-22T17:06:01;95397.38;;;13.68;47.39
46456;BME280;64052;47.466;9.094;2023-02-22T17:11:03;95403.66;;;13.67;47.65
46456;BME280;64052;47.466;9.094;2023-02-22T17:16:05;95409.47;;;13.71;47.30
46456;BME280;64052;47.466;9.094;2023-02-22T17:21:09;95421.69;;;13.63;47.27
46456;BME280;64052;47.466;9.094;2023-02-22T17:26:12;95422.81;;;13.53;47.96
46456;BME280;64052;47.466;9.094;2023-02-22T17:31:21;95431.59;;;13.53;48.96
46456;BME280;64052;47.466;9.094;2023-02-22T17:36:24;95427.28;;;13.52;48.27
46456;BME280;64052;47.466;9.094;2023-02-22T17:41:25;95433.91;;;13.48;49.08
46456;BME280;64052;47.466;9.094;2023-02-22T17:46:27;95436.69;;;13.46;48.85
46456;BME280;64052;47.466;9.094;2023-02-22T17:51:28;95441.44;;;13.43;49.12
46456;BME280;64052;47.466;9.094;2023-02-22T17:56:30;95435.63;;;13.39;48.85
46456;BME280;64052;47.466;9.094;2023-02-22T18:01:31;95435.59;;;13.31;49.34
46456;BME280;64052;47.466;9.094;2023-02-22T18:06:33;95441.13;;;13.11;49.58
46456;BME280;64052;47.466;9.094;2023-02-22T18:11:37;95449.22;;;13.10;49.77
46456;BME280;64052;47.466;9.094;2023-02-22T18:16:38;95437.41;;;12.96;50.88
46456;BME280;64052;47.466;9.094;2023-02-22T18:21:40;95441.84;;;12.95;50.43
46456;BME280;64052;47.466;9.094;2023-02-22T18:26:41;95445.06;;;12.81;51.27
46456;BME280;64052;47.466;9.094;2023-02-22T18:31:43;95443.81;;;12.67;51.11
46456;BME280;64052;47.466;9.094;2023-02-22T18:36:44;95445.72;;;12.56;51.63
46456;BME280;64052;47.466;9.094;2023-02-22T18:41:46;95434.97;;;12.58;52.35
46456;BME280;64052;47.466;9.094;2023-02-22T18:46:47;95444.06;;;12.55;52.13
46456;BME280;64052;47.466;9.094;2023-02-22T18:51:49;95434.16;;;12.57;52.33
46456;BME280;64052;47.466;9.094;2023-02-22T18:56:50;95434.72;;;12.43;52.42
46456;BME280;64052;47.466;9.094;2023-02-22T19:01:52;95434.09;;;12.31;52.49
46456;BME280;64052;47.466;9.094;2023-02-22T19:06:54;95432.31;;;12.13;53.04
46456;BME280;64052;47.466;9.094;2023-02-22T19:11:55;95434.06;;;12.04;53.17
46456;BME280;64052;47.466;9.094;2023-02-22T19:16:57;95436.56;;;11.96;53.48
46456;BME280;64052;47.466;9.094;2023-02-22T19:21:58;95436.03;;;11.92;54.10
46456;BME280;64052;47.466;9.094;2023-02-22T19:27:00;95434.81;;;11.87;53.91
46456;BME280;64052;47.466;9.094;2023-02-22T19:32:01;95432.47;;;11.84;53.94
46456;BME280;64052;47.466;9.094;2023-02-22T19:37:04;95436.69;;;11.76;54.43
46456;BME280;64052;47.466;9.094;2023-02-22T19:42:06;95432.38;;;11.75;54.71
46456;BME280;64052;47.466;9.094;2023-02-22T19:47:07;95436.00;;;11.74;54.96
46456;BME280;64052;47.466;9.094;2023-02-22T19:52:09;95438.66;;;11.74;54.43
46456;BME280;64052;47.466;9.094;2023-02-22T19:57:11;95438.19;;;11.79;54.52
46456;BME280;64052;47.466;9.094;2023-02-22T20:02:12;95438.13;;;11.89;53.66
46456;BME280;64052;47.466;9.094;2023-02-22T20:07:14;95437.59;;;11.85;54.41
46456;BME280;64052;47.466;9.094;2023-02-22T20:12:15;95436.84;;;11.75;54.01
46456;BME280;64052;47.466;9.094;2023-02-22T20:17:17;95450.50;;;11.70;54.20
46456;BME280;64052;47.466;9.094;2023-02-22T20:22:19;95450.09;;;11.65;54.60
46456;BME280;64052;47.466;9.094;2023-02-22T20:27:21;95448.97;;;11.67;54.11
46456;BME280;64052;47.466;9.094;2023-02-22T20:32:22;95456.16;;;11.47;54.96
46456;BME280;64052;47.466;9.094;2023-02-22T20:48:40;95464.22;;;11.46;55.30
46456;BME280;64052;47.466;9.094;2023-02-22T20:53:41;95472.56;;;11.41;55.04
46456;BME280;64052;47.466;9.094;2023-02-22T20:58:43;95468.28;;;11.40;55.05
46456;BME280;64052;47.466;9.094;2023-02-22T21:03:45;95465.50;;;11.42;55.46
46456;BME280;64052;47.466;9.094;2023-02-22T21:08:53;95464.56;;;11.33;55.15
46456;BME280;64052;47.466;9.094;2023-02-22T21:13:55;95454.50;;;11.18;56.25
46456;BME280;64052;47.466;9.094;2023-02-22T21:18:59;95462.78;;;11.23;55.81
46456;BME280;64052;47.466;9.094;2023-02-22T21:24:01;95457.75;;;11.30;55.75
46456;BME280;64052;47.466;9.094;2023-02-22T21:29:04;95451.38;;;11.33;55.67
46456;BME280;64052;47.466;9.094;2023-02-22T21:34:08;95444.69;;;11.29;56.21
46456;BME280;64052;47.466;9.094;2023-02-22T21:39:13;95454.75;;;11.25;56.57
46456;BME280;64052;47.466;9.094;2023-02-22T21:44:15;95448.91;;;11.21;56.72
46456;BME280;64052;47.466;9.094;2023-02-22T21:49:18;95451.03;;;11.08;56.76
46456;BME280;64052;47.466;9.094;2023-02-22T21:54:19;95444.63;;;11.10;57.32
46456;BME280;64052;47.466;9.094;2023-02-22T21:59:21;95450.50;;;11.04;56.98
46456;BME280;64052;47.466;9.094;2023-02-22T22:04:27;95449.00;;;10.92;57.69
46456;BME280;64052;47.466;9.094;2023-02-22T22:09:29;95451.66;;;10.92;58.06
46456;BME280;64052;47.466;9.094;2023-02-22T22:14:32;95446.50;;;10.90;57.49
46456;BME280;64052;47.466;9.094;2023-02-22T22:19:36;95446.78;;;10.87;57.88
46456;BME280;64052;47.466;9.094;2023-02-22T22:24:38;95445.38;;;10.93;57.71
46456;BME280;64052;47.466;9.094;2023-02-22T22:29:39;95444.41;;;10.94;57.96
46456;BME280;64052;47.466;9.094;2023-02-22T22:34:41;95442.88;;;10.91;59.15
46456;BME280;64052;47.466;9.094;2023-02-22T22:39:42;95448.03;;;10.93;59.67
46456;BME280;64052;47.466;9.094;2023-02-22T22:44:44;95447.19;;;10.92;59.72
46456;BME280;64052;47.466;9.094;2023-02-22T22:49:46;95442.31;;;10.98;60.07
46456;BME280;64052;47.466;9.094;2023-02-22T22:54:47;95438.41;;;11.02;60.23
46456;BME280;64052;47.466;9.094;2023-02-22T22:59:48;95448.50;;;11.16;59.48
46456;BME280;64052;47.466;9.094;2023-02-22T23:04:50;95438.31;;;11.31;59.42
46456;BME280;64052;47.466;9.094;2023-02-22T23:09:51;95449.53;;;11.33;59.33
46456;BME280;64052;47.466;9.094;2023-02-22T23:14:53;95442.91;;;11.29;60.06
46456;BME280;64052;47.466;9.094;2023-02-22T23:19:55;95433.63;;;11.25;60.19
46456;BME280;64052;47.466;9.094;2023-02-22T23:24:57;95432.28;;;11.39;60.92
46456;BME280;64052;47.466;9.094;2023-02-22T23:29:58;95442.19;;;11.37;60.02
46456;BME280;64052;47.466;9.094;2023-02-22T23:35:00;95436.66;;;11.30;60.67
46456;BME280;64052;47.466;9.094;2023-02-22T23:40:02;95432.06;;;11.32;60.93
46456;BME280;64052;47.466;9.094;2023-02-22T23:45:04;95432.47;;;11.37;61.61
46456;BME280;64052;47.466;9.094;2023-02-22T23:50:06;95438.41;;;11.39;61.45
46456;BME280;64052;47.466;9.094;2023-02-22T23:55:08;95428.97;;;11.37;62.35
